Time;durP1;ratioP1;P1;durP2;ratioP2;P2;SDS_P1;SDS_P2;PMS_P1;PMS_P2;Temp;Humidity;BMP_temperature;BMP_pressure;BME280_temperature;BME280_humidity;BME280_pressure;Samples;Min_cycle;Max_cycle;Signal;HPM_P1;HPM_P2
2021/05/13 00:00:33;;;;;;;4.35;2.40;;;11.60;99.90;;;;;;6125041;23;20010;-91
2021/05/13 00:06:03;;;;;;;5.60;3.13;;;11.50;99.90;;;;;;6144360;23;20022;-92
2021/05/13 00:08:32;;;;;;;4.53;2.50;;;11.50;99.90;;;;;;6128204;23;20020;-92
2021/05/13 00:11:05;;;;;;;4.38;2.20;;;11.40;99.90;;;;;;6104846;23;20017;-93
2021/05/13 00:13:36;;;;;;;4.10;2.45;;;11.30;99.90;;;;;;6108600;23;19998;-94
2021/05/13 00:16:08;;;;;;;5.90;2.00;;;11.30;99.90;;;;;;6109184;23;20004;-92
2021/05/13 00:18:36;;;;;;;3.95;2.20;;;11.30;99.90;;;;;;6127525;23;20010;-93
2021/05/13 00:21:03;;;;;;;5.90;2.25;;;11.40;99.90;;;;;;6115095;23;20014;-94
2021/05/13 00:23:45;;;;;;;9.57;2.70;;;11.40;99.90;;;;;;6114660;23;20045;-93
2021/05/13 00:26:13;;;;;;;4.15;2.28;;;11.40;99.90;;;;;;6091870;23;20362;-92
2021/05/13 00:28:40;;;;;;;3.78;2.58;;;11.40;99.90;;;;;;6125154;23;20033;-91
2021/05/13 00:31:08;;;;;;;3.60;2.28;;;11.30;99.90;;;;;;6096410;23;20298;-93
2021/05/13 00:33:35;;;;;;;3.83;2.53;;;11.40;99.90;;;;;;6113014;23;20049;-94
2021/05/13 00:36:02;;;;;;;6.13;2.63;;;11.30;99.90;;;;;;6115965;23;20047;-93
2021/05/13 00:38:32;;;;;;;4.20;2.45;;;11.30;99.90;;;;;;6117133;23;20049;-95
2021/05/13 00:41:18;;;;;;;4.60;2.80;;;11.30;99.90;;;;;;6090151;23;20057;-94
2021/05/13 00:43:45;;;;;;;4.28;2.40;;;11.40;99.90;;;;;;6137932;23;20054;-93
2021/05/13 00:46:16;;;;;;;5.30;2.85;;;11.40;99.90;;;;;;6088948;23;20266;-93
2021/05/13 00:48:46;;;;;;;4.95;2.80;;;11.40;99.90;;;;;;6089601;23;20046;-95
2021/05/13 00:51:13;;;;;;;4.78;2.90;;;11.40;99.90;;;;;;6113056;23;20046;-93
2021/05/13 00:53:44;;;;;;;5.35;2.70;;;11.40;99.90;;;;;;6089176;23;20350;-96
2021/05/13 00:56:12;;;;;;;4.47;2.90;;;11.40;99.90;;;;;;6156718;23;20005;-96
2021/05/13 00:58:44;;;;;;;3.85;2.80;;;11.40;99.90;;;;;;6132682;23;20005;-94
2021/05/13 01:01:15;;;;;;;6.40;3.28;;;11.40;99.90;;;;;;6124076;23;20013;-95
2021/05/13 01:03:44;;;;;;;5.50;3.25;;;11.40;99.90;;;;;;6090564;23;20051;-94
2021/05/13 01:06:14;;;;;;;7.13;3.40;;;11.40;99.90;;;;;;6069573;23;20036;-94
2021/05/13 01:08:42;;;;;;;5.20;3.72;;;11.40;99.90;;;;;;6090707;23;20009;-93
2021/05/13 01:11:12;;;;;;;5.15;3.60;;;11.50;99.90;;;;;;6148463;23;20021;-95
2021/05/13 01:14:00;;;;;;;6.15;3.85;;;11.40;99.90;;;;;;6122223;23;20066;-93
2021/05/13 01:16:34;;;;;;;5.82;3.67;;;11.40;99.90;;;;;;6113878;23;20263;-94
2021/05/13 01:19:06;;;;;;;5.05;3.92;;;11.40;99.90;;;;;;6112490;23;20049;-94
2021/05/13 01:21:38;;;;;;;6.47;3.80;;;11.30;99.90;;;;;;6113913;23;20037;-93
2021/05/13 01:24:07;;;;;;;5.90;3.88;;;11.40;99.90;;;;;;6114121;23;20046;-94
2021/05/13 01:26:34;;;;;;;6.85;4.60;;;11.40;99.90;;;;;;6112885;23;20034;-93
2021/05/13 01:29:03;;;;;;;6.97;4.40;;;11.30;99.90;;;;;;6117673;23;20078;-94
2021/05/13 01:31:30;;;;;;;;;;;11.30;99.90;;;;;;6095994;23;20010;-93
2021/05/13 01:33:57;;;;;;;6.65;4.05;;;11.30;99.90;;;;;;6101148;23;19921;-93
2021/05/13 01:36:25;;;;;;;7.32;4.60;;;11.30;99.90;;;;;;6096129;23;20021;-93
2021/05/13 01:38:57;;;;;;;9.73;4.57;;;11.30;99.90;;;;;;6113808;23;20344;-93
2021/05/13 01:41:24;;;;;;;6.03;4.43;;;11.30;99.90;;;;;;6091251;23;20034;-91
2021/05/13 01:43:51;;;;;;;8.93;4.78;;;11.30;99.90;;;;;;6139143;23;20057;-93
2021/05/13 01:46:21;;;;;;;7.93;4.88;;;11.30;99.90;;;;;;6128105;23;20005;-94
2021/05/13 01:48:51;;;;;;;8.02;4.82;;;11.30;99.90;;;;;;6131521;23;20018;-93
2021/05/13 01:51:20;;;;;;;8.02;4.63;;;11.30;99.90;;;;;;6074029;23;20014;-94
2021/05/13 01:53:47;;;;;;;;;;;11.30;99.90;;;;;;6122691;23;20014;-93
2021/05/13 01:56:18;;;;;;;9.23;4.97;;;11.20;99.90;;;;;;6099010;23;19928;-93
2021/05/13 01:58:45;;;;;;;9.45;5.40;;;11.30;99.90;;;;;;6115290;23;20038;-93
2021/05/13 02:01:19;;;;;;;6.93;4.80;;;11.30;99.90;;;;;;6117287;23;20045;-94
2021/05/13 02:03:49;;;;;;;7.85;4.85;;;11.30;99.90;;;;;;6117404;23;20282;-94
2021/05/13 02:06:16;;;;;;;9.95;5.57;;;11.30;99.90;;;;;;6061701;23;20022;-94
2021/05/13 02:08:45;;;;;;;10.00;5.82;;;11.20;99.90;;;;;;6091918;23;20017;-93
2021/05/13 02:11:12;;;;;;;9.00;5.43;;;11.30;99.90;;;;;;6110571;23;20042;-93
2021/05/13 02:13:40;;;;;;;8.02;4.90;;;11.20;99.90;;;;;;6084120;23;20258;-94
2021/05/13 02:16:09;;;;;;;7.20;5.30;;;11.20;99.90;;;;;;6088348;23;20014;-93
2021/05/13 02:18:36;;;;;;;8.57;5.43;;;11.20;99.90;;;;;;6062386;23;20010;-94
2021/05/13 02:21:05;;;;;;;9.35;5.50;;;11.20;99.90;;;;;;6093233;23;20017;-93
2021/05/13 02:23:33;;;;;;;7.43;5.03;;;11.30;99.90;;;;;;6079678;23;20021;-93
2021/05/13 02:26:02;;;;;;;9.90;5.60;;;11.30;99.90;;;;;;6096207;23;20014;-94
2021/05/13 02:28:30;;;;;;;9.07;5.80;;;11.20;99.90;;;;;;6061108;23;20289;-92
2021/05/13 02:31:06;;;;;;;8.00;5.40;;;11.30;99.90;;;;;;6109649;23;20045;-94
2021/05/13 02:33:49;;;;;;;7.78;5.78;;;11.30;99.90;;;;;;6084511;23;20042;-88
2021/05/13 02:36:16;;;;;;;7.53;5.22;;;11.20;99.90;;;;;;6060049;23;20039;-88
2021/05/13 02:38:44;;;;;;;8.45;5.55;;;11.20;99.90;;;;;;6082131;23;20043;-87
2021/05/13 02:41:16;;;;;;;8.40;5.22;;;11.20;99.90;;;;;;6059511;23;20564;-93
2021/05/13 02:44:02;;;;;;;10.52;5.32;;;11.20;99.90;;;;;;6063223;23;20398;-93
2021/05/13 02:46:30;;;;;;;8.43;5.72;;;11.20;99.90;;;;;;6112841;23;20017;-90
2021/05/13 02:48:58;;;;;;;12.73;5.70;;;11.30;99.90;;;;;;6083096;23;20050;-89
2021/05/13 02:51:25;;;;;;;7.50;5.43;;;11.30;99.90;;;;;;6059082;23;20039;-93
2021/05/13 02:53:52;;;;;;;10.48;6.13;;;11.20;99.90;;;;;;6059315;23;20010;-92
2021/05/13 02:56:23;;;;;;;9.25;6.00;;;11.20;99.90;;;;;;6082765;23;20042;-93
2021/05/13 02:58:51;;;;;;;10.02;6.60;;;11.20;99.90;;;;;;6082348;23;20367;-93
2021/05/13 03:01:24;;;;;;;12.07;7.07;;;11.20;99.90;;;;;;6085822;23;20017;-92
2021/05/13 03:03:54;;;;;;;11.20;6.43;;;11.20;99.90;;;;;;6050349;23;20022;-92
2021/05/13 03:06:22;;;;;;;11.93;6.88;;;11.10;99.90;;;;;;6097484;23;20018;-94
2021/05/13 03:08:53;;;;;;;13.23;7.87;;;11.10;99.90;;;;;;6091299;23;20010;-93
2021/05/13 03:11:20;;;;;;;11.73;6.93;;;11.20;99.90;;;;;;6057399;23;20039;-92
2021/05/13 03:13:49;;;;;;;12.90;7.00;;;11.10;99.90;;;;;;6080340;23;20026;-95
2021/05/13 03:16:22;;;;;;;8.75;5.97;;;11.10;99.90;;;;;;6092494;23;20006;-93
2021/05/13 03:19:05;;;;;;;11.82;6.63;;;11.20;99.90;;;;;;6114693;23;20010;-94
2021/05/13 03:21:35;;;;;;;9.77;6.28;;;11.20;99.90;;;;;;6079205;23;20010;-94
2021/05/13 03:24:08;;;;;;;10.93;6.35;;;11.30;99.90;;;;;;6065139;23;20241;-91
2021/05/13 03:26:43;;;;;;;12.82;6.10;;;11.30;99.90;;;;;;6083795;23;20042;-92
2021/05/13 03:29:10;;;;;;;12.23;6.57;;;11.30;99.90;;;;;;6062070;23;20243;-93
2021/05/13 03:31:38;;;;;;;12.88;6.30;;;11.20;99.90;;;;;;6107768;23;20042;-93
2021/05/13 03:34:09;;;;;;;10.85;6.85;;;11.20;99.90;;;;;;6085973;23;20050;-93
2021/05/13 03:36:36;;;;;;;10.55;6.07;;;11.20;99.90;;;;;;6112806;23;20017;-95
2021/05/13 03:39:07;;;;;;;9.48;5.90;;;11.20;99.90;;;;;;6088523;23;20010;-86
2021/05/13 03:41:37;;;;;;;11.23;6.38;;;11.20;99.90;;;;;;6038116;23;20057;-92
2021/05/13 03:44:05;;;;;;;9.55;6.18;;;11.20;99.90;;;;;;6084563;23;20062;-93
2021/05/13 03:46:32;;;;;;;9.67;6.87;;;11.20;99.90;;;;;;6070099;23;20017;-92
2021/05/13 03:49:00;;;;;;;10.20;5.90;;;11.20;99.90;;;;;;6101306;23;20002;-93
2021/05/13 03:51:28;;;;;;;11.88;6.45;;;11.20;99.90;;;;;;6093306;23;20010;-94
2021/05/13 03:53:55;;;;;;;13.07;7.38;;;11.20;99.90;;;;;;6061213;23;20038;-94
2021/05/13 03:56:23;;;;;;;10.32;6.25;;;11.20;99.90;;;;;;6060724;23;20054;-95
2021/05/13 03:58:54;;;;;;;17.43;6.67;;;11.20;99.90;;;;;;6087386;23;20104;-94
2021/05/13 04:01:40;;;;;;;11.15;6.43;;;11.20;99.90;;;;;;6066538;23;20021;-94
2021/05/13 04:04:11;;;;;;;9.07;6.10;;;11.30;99.90;;;;;;6076950;23;20013;-94
2021/05/13 04:06:41;;;;;;;10.82;6.10;;;11.30;99.90;;;;;;6062687;23;20020;-92
2021/05/13 04:09:09;;;;;;;11.90;5.65;;;11.30;99.90;;;;;;6082144;23;20010;-91
2021/05/13 04:11:50;;;;;;;10.32;5.82;;;11.40;99.90;;;;;;6086104;23;20013;-91
2021/05/13 04:14:36;;;;;;;10.65;5.82;;;11.40;99.90;;;;;;6110050;23;20018;-90
2021/05/13 04:17:06;;;;;;;8.27;5.53;;;11.30;99.90;;;;;;6096467;23;20014;-92
2021/05/13 04:19:33;;;;;;;10.70;5.55;;;11.30;99.90;;;;;;6086578;23;20046;-91
2021/05/13 04:22:07;;;;;;;12.63;5.53;;;11.20;99.90;;;;;;6086327;23;20021;-92
2021/05/13 04:24:37;;;;;;;12.02;5.47;;;11.20;99.90;;;;;;6084542;23;20050;-90
2021/05/13 04:27:05;;;;;;;7.68;5.20;;;11.20;99.90;;;;;;6086765;23;20050;-91
2021/05/13 04:29:35;;;;;;;9.48;5.38;;;11.30;99.90;;;;;;6086720;23;20010;-88
2021/05/13 04:32:02;;;;;;;9.38;4.70;;;11.20;99.90;;;;;;6085651;23;20042;-91
2021/05/13 04:37:29;;;;;;;8.50;5.05;;;11.30;99.90;;;;;;6014019;23;20018;-92
2021/05/13 04:39:56;;;;;;;8.50;5.10;;;11.30;99.90;;;;;;6107965;23;20012;-90
2021/05/13 04:42:23;;;;;;;11.85;5.38;;;11.20;99.90;;;;;;6131386;23;20020;-91
2021/05/13 04:44:52;;;;;;;6.75;4.20;;;11.30;99.90;;;;;;6130499;23;20017;-89
2021/05/13 04:47:25;;;;;;;12.73;5.30;;;11.40;99.90;;;;;;6130799;23;20001;-91
2021/05/13 04:49:55;;;;;;;9.43;4.68;;;11.30;99.90;;;;;;6131053;23;20020;-91
2021/05/13 04:52:24;;;;;;;7.10;4.10;;;11.30;99.90;;;;;;6132662;23;20021;-92
2021/05/13 04:57:45;;;;;;;6.65;4.22;;;11.40;99.90;;;;;;6044720;23;19917;-90
2021/05/13 05:00:15;;;;;;;8.00;3.90;;;11.30;99.90;;;;;;6096519;23;20006;-91
2021/05/13 05:02:43;;;;;;;6.78;4.10;;;11.30;99.90;;;;;;6121298;23;20014;-91
2021/05/13 05:05:14;;;;;;;4.95;3.53;;;11.40;99.90;;;;;;6098277;23;20014;-89
2021/05/13 05:07:43;;;;;;;7.80;3.60;;;11.30;99.90;;;;;;6117608;23;20002;-89
2021/05/13 05:10:13;;;;;;;5.93;3.40;;;11.40;99.90;;;;;;6107849;23;20002;-90
2021/05/13 05:12:43;;;;;;;5.97;3.25;;;11.30;99.90;;;;;;6132307;23;20005;-88
2021/05/13 05:15:11;;;;;;;8.18;3.50;;;11.30;99.90;;;;;;6148057;23;20029;-90
2021/05/13 05:17:39;;;;;;;5.32;3.03;;;11.20;99.90;;;;;;6141592;23;20341;-92
2021/05/13 05:20:15;;;;;;;6.20;3.20;;;11.10;99.90;;;;;;6117334;23;20021;-93
2021/05/13 05:22:45;;;;;;;8.10;3.30;;;11.10;99.90;;;;;;6118497;23;20050;-92
2021/05/13 05:25:15;;;;;;;4.93;2.92;;;11.10;99.90;;;;;;6090704;23;20034;-91
2021/05/13 05:27:43;;;;;;;6.53;3.38;;;11.20;99.90;;;;;;6121669;23;20009;-90
2021/05/13 05:30:14;;;;;;;6.37;3.17;;;11.20;99.90;;;;;;6096635;23;20013;-90
2021/05/13 05:32:42;;;;;;;10.05;3.35;;;11.10;99.90;;;;;;6114136;23;20021;-89
2021/05/13 05:35:10;;;;;;;8.10;3.25;;;11.10;99.90;;;;;;6112799;23;20045;-92
2021/05/13 05:37:39;;;;;;;8.32;2.97;;;11.00;99.90;;;;;;6140071;23;20017;-92
2021/05/13 05:40:08;;;;;;;7.93;3.55;;;11.00;99.90;;;;;;6089166;23;20041;-92
2021/05/13 05:42:35;;;;;;;7.53;3.20;;;11.10;99.90;;;;;;6119779;23;20017;-90
2021/05/13 05:45:06;;;;;;;5.97;3.17;;;11.00;99.90;;;;;;6094083;23;20017;-89
2021/05/13 05:47:35;;;;;;;6.97;3.35;;;11.00;99.90;;;;;;6113232;23;20046;-89
2021/05/13 05:50:06;;;;;;;9.25;3.85;;;11.00;99.90;;;;;;6112740;23;20050;-89
2021/05/13 05:52:34;;;;;;;8.93;3.47;;;11.10;99.90;;;;;;6139346;23;20235;-86
2021/05/13 05:55:06;;;;;;;6.72;3.45;;;11.20;99.90;;;;;;6121908;23;20006;-89
2021/05/13 05:57:33;;;;;;;8.40;3.58;;;11.20;99.90;;;;;;6115279;23;20009;-89
2021/05/13 06:00:02;;;;;;;8.80;3.50;;;11.30;99.90;;;;;;6062954;23;20046;-88
2021/05/13 06:02:30;;;;;;;9.15;3.50;;;11.20;99.90;;;;;;6118538;23;20017;-87
2021/05/13 06:04:59;;;;;;;7.00;3.45;;;11.40;99.90;;;;;;6146181;23;20010;-86
2021/05/13 06:07:26;;;;;;;7.78;3.47;;;11.40;99.90;;;;;;6072150;23;20010;-89
2021/05/13 06:09:55;;;;;;;8.15;3.85;;;11.30;99.90;;;;;;6097011;23;20037;-91
2021/05/13 06:12:23;;;;;;;9.27;3.60;;;11.40;99.90;;;;;;6121541;23;20318;-95
2021/05/13 06:14:51;;;;;;;8.50;3.63;;;11.40;99.90;;;;;;6121389;23;20014;-96
2021/05/13 06:17:19;;;;;;;7.90;4.05;;;11.40;99.90;;;;;;6098120;23;20313;-94
2021/05/13 06:19:48;;;;;;;7.70;3.85;;;11.50;99.90;;;;;;6106300;23;20017;-95
2021/05/13 06:22:16;;;;;;;6.63;3.17;;;11.50;99.90;;;;;;6153814;23;20013;-96
2021/05/13 06:24:45;;;;;;;8.60;4.30;;;11.50;99.90;;;;;;6104829;23;20025;-94
2021/05/13 06:27:14;;;;;;;8.75;4.13;;;11.70;99.90;;;;;;6127561;23;20009;-94
2021/05/13 06:29:42;;;;;;;7.55;3.90;;;11.70;99.90;;;;;;6120134;23;20010;-93
2021/05/13 06:32:10;;;;;;;8.57;4.30;;;11.70;99.90;;;;;;6141144;23;20025;-96
2021/05/13 06:34:37;;;;;;;7.38;3.97;;;11.70;99.90;;;;;;6148445;23;20021;-93
2021/05/13 06:37:05;;;;;;;9.32;4.28;;;11.70;99.90;;;;;;6130810;23;20005;-93
2021/05/13 06:39:32;;;;;;;7.90;3.90;;;11.70;99.90;;;;;;6106727;23;20006;-93
2021/05/13 06:46:12;;;;;;;6.82;3.50;;;11.70;99.90;;;;;;6116884;23;20021;-92
2021/05/13 06:48:40;;;;;;;8.30;4.90;;;11.80;99.90;;;;;;6090960;23;20021;-91
2021/05/13 06:51:08;;;;;;;9.93;4.05;;;11.90;99.90;;;;;;6147899;23;20010;-93
2021/05/13 06:53:37;;;;;;;8.50;4.13;;;11.90;99.90;;;;;;6128242;23;20222;-91
2021/05/13 06:56:06;;;;;;;8.10;4.78;;;11.90;99.90;;;;;;6080920;23;20009;-92
2021/05/13 06:58:44;;;;;;;11.02;4.28;;;11.90;99.90;;;;;;6105538;23;20025;-93
2021/05/13 07:01:11;;;;;;;8.02;4.25;;;11.90;99.90;;;;;;6122629;23;20013;-93
2021/05/13 07:03:54;;;;;;;8.23;4.45;;;12.00;99.90;;;;;;6106949;23;20012;-93
2021/05/13 07:06:24;;;;;;;7.72;3.97;;;12.00;99.90;;;;;;6059613;23;20051;-91
2021/05/13 07:08:53;;;;;;;9.90;3.72;;;12.00;99.90;;;;;;6022046;23;20014;-91
2021/05/13 07:11:20;;;;;;;8.07;4.13;;;12.00;99.90;;;;;;6021818;23;20011;-92
2021/05/13 07:13:48;;;;;;;7.35;4.20;;;12.00;99.90;;;;;;6049704;23;20051;-91
2021/05/13 07:16:18;;;;;;;9.68;4.13;;;11.90;99.90;;;;;;6071852;23;20011;-94
2021/05/13 07:21:25;;;;;;;8.73;3.97;;;12.00;99.90;;;;;;6092398;23;19931;-92
2021/05/13 07:23:56;;;;;;;7.78;3.75;;;12.10;99.90;;;;;;6069420;23;20018;-92
2021/05/13 07:26:24;;;;;;;6.53;3.80;;;12.10;99.90;;;;;;6117856;23;20014;-92
2021/05/13 07:28:52;;;;;;;7.80;3.60;;;12.20;99.90;;;;;;6097542;23;20014;-94
2021/05/13 07:31:20;;;;;;;6.28;3.53;;;12.10;99.90;;;;;;6113486;23;20018;-93
2021/05/13 07:33:48;;;;;;;7.45;3.75;;;12.20;99.90;;;;;;6064503;23;20021;-94
2021/05/13 07:36:15;;;;;;;9.85;4.22;;;12.20;99.90;;;;;;6067442;23;20330;-93
2021/05/13 07:38:43;;;;;;;9.13;3.63;;;12.20;99.90;;;;;;6093563;23;20010;-93
2021/05/13 07:41:12;;;;;;;8.23;3.43;;;12.30;99.90;;;;;;6094878;23;20022;-94
2021/05/13 07:43:50;;;;;;;;;;;12.30;99.90;;;;;;6090727;23;20014;-94
2021/05/13 07:46:32;;;;;;;8.80;3.75;;;12.40;99.90;;;;;;6090991;23;19941;-94
2021/05/13 07:49:27;;;;;;;8.75;4.22;;;12.40;99.90;;;;;;6148293;23;20017;-93
2021/05/13 07:51:56;;;;;;;;;;;12.50;99.90;;;;;;6098615;23;20014;-94
2021/05/13 07:57:44;;;;;;;7.68;3.75;;;12.50;99.90;;;;;;6060934;23;20025;-93
2021/05/13 08:00:41;;;;;;;7.40;3.80;;;12.40;99.90;;;;;;6091127;23;20010;31
2021/05/13 08:03:14;;;;;;;8.30;3.90;;;12.40;99.90;;;;;;6041115;23;20043;-94
2021/05/13 08:08:34;;;;;;;6.22;3.50;;;12.60;99.90;;;;;;6000873;23;20018;-93
2021/05/13 08:11:05;;;;;;;7.05;3.70;;;12.60;99.90;;;;;;6001646;23;20011;-94
2021/05/13 08:13:34;;;;;;;7.82;3.65;;;12.70;99.90;;;;;;6001049;23;20016;-93
2021/05/13 08:16:09;;;;;;;9.10;4.32;;;12.80;99.90;;;;;;6029140;23;20016;-94
2021/05/13 08:18:40;;;;;;;6.38;3.80;;;12.90;99.90;;;;;;6010045;23;20014;-93
2021/05/13 08:21:12;;;;;;;7.25;3.72;;;13.00;99.90;;;;;;6029722;23;20019;-94
2021/05/13 08:23:39;;;;;;;6.55;3.60;;;13.10;99.90;;;;;;6031615;23;20006;-94
2021/05/13 08:26:07;;;;;;;7.50;3.05;;;13.10;99.90;;;;;;5989382;23;20016;-93
2021/05/13 08:28:45;;;;;;;8.53;3.27;;;13.10;99.90;;;;;;6004831;23;20034;-93
2021/05/13 08:31:19;;;;;;;6.80;3.17;;;13.10;99.90;;;;;;6007189;23;20241;-92
2021/05/13 08:42:13;;;;;;;5.93;3.33;;;13.00;99.90;;;;;;6071412;23;20018;-96
2021/05/13 08:44:43;;;;;;;5.78;3.15;;;13.00;99.90;;;;;;6097388;23;20062;-94
2021/05/13 08:47:11;;;;;;;7.78;3.95;;;12.90;99.90;;;;;;6067854;23;20014;-95
2021/05/13 08:49:41;;;;;;;5.93;2.90;;;12.90;99.90;;;;;;6039505;23;20017;-96
2021/05/13 08:52:11;;;;;;;6.43;2.90;;;12.90;99.90;;;;;;6042172;23;20018;-94
2021/05/13 08:54:53;;;;;;;7.03;2.80;;;13.00;99.90;;;;;;6044437;23;20026;-95
2021/05/13 08:57:24;;;;;;;6.40;2.65;;;13.00;99.90;;;;;;6064044;23;20010;-93
2021/05/13 08:59:58;;;;;;;5.72;3.22;;;13.20;99.90;;;;;;6088616;23;20014;-96
2021/05/13 09:03:05;;;;;;;7.68;2.85;;;13.20;99.90;;;;;;6039664;23;20027;-91
2021/05/13 09:05:49;;;;;;;10.93;3.60;;;13.40;99.90;;;;;;5964312;23;20022;-91
2021/05/13 09:08:22;;;;;;;7.05;3.47;;;13.40;99.90;;;;;;6005158;23;20019;-94
2021/05/13 09:10:53;;;;;;;5.07;3.03;;;13.60;99.90;;;;;;5979397;23;20048;-92
2021/05/13 09:13:27;;;;;;;6.00;3.60;;;13.90;99.90;;;;;;5998195;23;20035;-94
2021/05/13 09:15:58;;;;;;;6.88;3.45;;;13.90;99.90;;;;;;5979633;23;20019;-94
2021/05/13 09:18:33;;;;;;;6.63;4.03;;;13.90;99.90;;;;;;5980698;23;20012;-93
2021/05/13 09:21:10;;;;;;;6.13;3.80;;;13.70;99.90;;;;;;5981220;23;20022;-92
2021/05/13 09:24:33;;;;;;;7.65;3.60;;;13.80;99.90;;;;;;6004148;23;20015;-91
2021/05/13 09:27:13;;;;;;;6.80;3.83;;;13.80;99.90;;;;;;6005116;23;20011;-96
2021/05/13 09:29:40;;;;;;;6.85;3.83;;;13.70;99.90;;;;;;6005873;23;20027;-94
2021/05/13 09:32:19;;;;;;;8.60;3.92;;;13.80;99.90;;;;;;5990620;23;20012;-93
2021/05/13 09:34:48;;;;;;;8.70;4.00;;;14.00;99.90;;;;;;6016594;23;20000;-93
2021/05/13 09:37:15;;;;;;;10.38;3.97;;;14.00;99.90;;;;;;5993545;23;20018;-94
2021/05/13 09:39:52;;;;;;;10.80;3.80;;;14.10;99.90;;;;;;5993179;23;20015;-93
2021/05/13 09:42:20;;;;;;;6.07;3.78;;;14.10;99.90;;;;;;5993466;23;20014;-94
2021/05/13 09:44:49;;;;;;;7.90;3.80;;;14.10;99.90;;;;;;5992294;23;20016;-93
2021/05/13 09:47:20;;;;;;;6.10;3.78;;;14.00;99.90;;;;;;6039888;23;20012;-94
2021/05/13 09:50:06;;;;;;;7.60;4.97;;;14.10;99.90;;;;;;5992489;23;20011;-93
2021/05/13 09:52:42;;;;;;;8.93;4.28;;;14.10;99.90;;;;;;5990535;23;20007;-93
2021/05/13 09:55:13;;;;;;;;;;;14.20;99.90;;;;;;6037503;23;20015;-92
2021/05/13 09:57:42;;;;;;;9.98;4.05;;;14.20;99.90;;;;;;5991275;23;19929;-91
2021/05/13 10:00:29;;;;;;;8.40;3.80;;;14.40;99.90;;;;;;5992544;23;20003;-92
2021/05/13 10:03:24;;;;;;;6.70;3.75;;;14.50;99.90;;;;;;6012229;23;20357;-92
2021/05/13 10:06:17;;;;;;;;;;;;;;;;;;;;;
2021/05/13 10:08:48;;;;;;;8.57;3.97;;;14.80;99.90;;;;;;6047304;23;20015;-93
2021/05/13 10:11:20;;;;;;;8.80;5.18;;;14.60;99.90;;;;;;6029300;23;20259;-94
2021/05/13 10:13:50;;;;;;;9.30;5.32;;;14.70;99.90;;;;;;6030566;23;20014;-93
2021/05/13 10:16:19;;;;;;;8.52;4.32;;;14.80;99.90;;;;;;6027773;23;20335;-93
2021/05/13 10:18:59;;;;;;;7.15;4.03;;;14.70;99.90;;;;;;6004471;23;20254;-94
2021/05/13 10:21:33;;;;;;;7.75;4.18;;;14.70;99.90;;;;;;6029151;23;20043;-92
2021/05/13 10:24:03;;;;;;;9.50;4.13;;;14.60;99.90;;;;;;6031839;23;20018;-93
2021/05/13 10:26:49;;;;;;;9.15;4.32;;;14.60;99.90;;;;;;6032176;23;20012;-92
2021/05/13 10:29:35;;;;;;;;;;;14.60;99.90;;;;;;6034108;23;20034;-92
2021/05/13 10:32:14;;;;;;;9.10;3.47;;;14.80;99.90;;;;;;6034843;23;19933;-92
2021/05/13 10:34:57;;;;;;;6.40;3.00;;;14.90;99.90;;;;;;6011016;23;20022;-92
2021/05/13 10:37:35;;;;;;;5.07;2.65;;;15.10;99.90;;;;;;6031846;23;20022;-92
2021/05/13 10:43:07;;;;;;;5.15;2.90;;;15.00;99.90;;;;;;6029555;23;20011;-93
2021/05/13 10:45:41;;;;;;;7.50;3.00;;;15.00;99.90;;;;;;6007500;23;20019;-94
2021/05/13 10:48:21;;;;;;;5.40;2.60;;;15.00;99.90;;;;;;6031001;23;20251;-95
2021/05/13 10:50:52;;;;;;;;;;;15.00;99.90;;;;;;6031539;23;20007;-91
2021/05/13 10:53:44;;;;;;;4.25;1.70;;;15.20;99.90;;;;;;6006731;23;19929;-94
2021/05/13 10:57:03;;;;;;;3.70;1.20;;;15.30;99.90;;;;;;6029192;23;20022;-94
2021/05/13 11:00:22;;;;;;;3.78;1.40;;;15.30;99.90;;;;;;6005564;23;20026;-94
2021/05/13 11:02:53;;;;;;;4.28;1.20;;;15.40;99.90;;;;;;6003703;23;20043;-94
2021/05/13 11:05:41;;;;;;;2.45;1.20;;;15.50;99.90;;;;;;6027372;23;20043;-94
2021/05/13 11:08:46;;;;;;;5.22;1.48;;;15.60;99.90;;;;;;6006915;23;20344;-93
2021/05/13 11:12:10;;;;;;;4.53;1.40;;;15.70;99.90;;;;;;6054660;23;20015;-94
2021/05/13 11:15:02;;;;;;;3.50;1.60;;;15.90;99.90;;;;;;6063232;23;20015;-91
2021/05/13 11:18:15;;;;;;;4.45;1.83;;;16.00;99.90;;;;;;6037169;23;20011;-92
2021/05/13 11:20:57;;;;;;;4.25;1.60;;;16.00;99.90;;;;;;6030857;23;20018;-95
2021/05/13 11:23:26;;;;;;;3.88;2.45;;;16.00;99.90;;;;;;6015182;23;20018;-92
2021/05/13 11:26:15;;;;;;;7.82;3.75;;;16.00;99.90;;;;;;6019077;23;20022;-94
2021/05/13 11:28:46;;;;;;;7.70;3.90;;;15.80;99.90;;;;;;6019654;23;20011;-94
2021/05/13 11:31:18;;;;;;;4.50;2.88;;;15.50;99.90;;;;;;6041277;23;20030;-95
2021/05/13 11:33:47;;;;;;;7.57;3.50;;;15.50;99.90;;;;;;6008134;23;20012;-94
2021/05/13 11:36:18;;;;;;;9.20;3.15;;;15.60;99.90;;;;;;6030306;23;20022;-95
2021/05/13 11:38:53;;;;;;;7.47;4.03;;;15.70;99.90;;;;;;6053299;23;20054;-93
2021/05/13 11:41:24;;;;;;;5.20;3.00;;;15.80;99.90;;;;;;6007756;23;20030;-94
2021/05/13 11:43:54;;;;;;;7.40;3.30;;;15.80;99.90;;;;;;6033247;23;20022;-93
2021/05/13 11:46:27;;;;;;;7.68;2.45;;;16.00;99.90;;;;;;6057121;23;20019;-93
2021/05/13 11:48:55;;;;;;;6.57;3.00;;;16.30;99.90;;;;;;5982439;23;20267;-95
2021/05/13 11:51:26;;;;;;;8.90;2.40;;;16.30;99.90;;;;;;5981895;23;20043;-94
2021/05/13 11:53:55;;;;;;;7.10;2.72;;;16.40;99.90;;;;;;6004243;23;20015;-95
2021/05/13 11:56:55;;;;;;;5.80;2.38;;;16.30;99.90;;;;;;6051419;23;20252;-96
2021/05/13 11:59:27;;;;;;;4.72;1.80;;;16.40;99.90;;;;;;6051318;23;20050;-96
2021/05/13 12:02:21;;;;;;;4.00;2.03;;;16.50;99.90;;;;;;6018715;23;20259;-94
2021/05/13 12:04:49;;;;;;;4.75;2.38;;;16.40;99.90;;;;;;5953833;23;20043;-92
2021/05/13 12:07:21;;;;;;;3.83;1.70;;;16.40;99.90;;;;;;5976912;23;20261;-92
2021/05/13 12:09:53;;;;;;;3.35;1.52;;;16.30;99.90;;;;;;6000523;23;20319;-91
2021/05/13 12:12:32;;;;;;;7.72;1.70;;;16.20;99.90;;;;;;6000092;23;20039;-93
2021/05/13 12:15:21;;;;;;;4.75;1.70;;;16.00;99.90;;;;;;5993969;23;20384;-94
2021/05/13 12:17:53;;;;;;;6.35;1.67;;;15.70;99.90;;;;;;5999091;23;20044;-92
2021/05/13 12:20:21;;;;;;;6.57;1.70;;;15.70;99.90;;;;;;6021780;23;20044;-91
2021/05/13 12:22:49;;;;;;;4.03;1.48;;;15.70;99.90;;;;;;6023284;23;20040;-93
2021/05/13 12:25:19;;;;;;;4.82;2.55;;;15.60;99.90;;;;;;6024249;23;20047;-92
2021/05/13 12:27:48;;;;;;;;;;;15.50;99.90;;;;;;5977218;23;20356;-90
2021/05/13 12:30:19;;;;;;;7.32;2.33;;;15.60;99.90;;;;;;5976754;23;19933;-93
2021/05/13 12:32:47;;;;;;;6.68;1.63;;;15.70;99.90;;;;;;6004731;23;20015;-93
2021/05/13 12:35:28;;;;;;;3.50;1.63;;;15.70;99.90;;;;;;5975456;23;20047;-93
2021/05/13 12:38:12;;;;;;;6.00;1.67;;;15.80;99.90;;;;;;5998818;23;20372;-94
2021/05/13 12:40:41;;;;;;;3.42;1.33;;;15.70;99.90;;;;;;5973220;23;20022;-93
2021/05/13 12:43:11;;;;;;;2.40;1.20;;;15.90;99.90;;;;;;6023368;23;20039;-94
2021/05/13 12:45:47;;;;;;;3.58;1.23;;;16.10;99.90;;;;;;5976736;23;20027;-94
2021/05/13 12:48:22;;;;;;;3.08;1.20;;;16.40;99.90;;;;;;5998333;23;20051;-94
2021/05/13 12:50:57;;;;;;;2.90;1.17;;;16.40;99.90;;;;;;6000016;23;20043;-92
2021/05/13 12:53:28;;;;;;;8.30;1.50;;;16.50;99.90;;;;;;5977314;23;20241;-92
2021/05/13 12:55:57;;;;;;;3.40;1.60;;;16.80;99.90;;;;;;5999941;23;20052;-90
2021/05/13 12:58:27;;;;;;;4.20;2.10;;;17.00;99.90;;;;;;5999462;23;20036;-90
2021/05/13 13:00:57;;;;;;;3.08;1.42;;;17.40;99.90;;;;;;5999890;23;20043;-93
2021/05/13 13:03:30;;;;;;;6.05;1.45;;;17.40;99.90;;;;;;6026421;23;20270;-93
2021/05/13 13:06:08;;;;;;;5.20;1.58;;;17.50;99.90;;;;;;6004177;23;20047;-91
2021/05/13 13:08:41;;;;;;;5.68;1.60;;;17.70;99.90;;;;;;6029094;23;20011;-93
2021/05/13 13:11:09;;;;;;;4.28;1.50;;;17.70;99.40;;;;;;6007404;23;20386;-90
2021/05/13 13:13:43;;;;;;;2.58;1.27;;;18.00;99.50;;;;;;6051533;23;20247;-91
2021/05/13 13:16:20;;;;;;;5.53;2.10;;;18.30;98.00;;;;;;6006406;23;20067;-92
2021/05/13 13:18:49;;;;;;;2.38;1.25;;;18.50;97.60;;;;;;6018442;23;20015;-93
2021/05/13 13:21:20;;;;;;;4.60;1.60;;;18.50;95.70;;;;;;6034669;23;20022;-94
2021/05/13 13:23:50;;;;;;;6.78;1.38;;;18.40;95.40;;;;;;6030539;23;20055;-93
2021/05/13 13:26:34;;;;;;;2.65;1.30;;;18.40;95.00;;;;;;6006910;23;20018;-94
2021/05/13 13:29:06;;;;;;;3.70;1.05;;;18.20;94.40;;;;;;6006064;23;20036;-92
2021/05/13 13:31:37;;;;;;;2.30;1.10;;;18.40;94.60;;;;;;6063141;23;20007;-93
2021/05/13 13:34:04;;;;;;;3.88;1.42;;;18.60;92.90;;;;;;6015699;23;20026;-92
2021/05/13 13:36:34;;;;;;;3.35;1.10;;;18.80;89.90;;;;;;6017613;23;20018;-93
2021/05/13 13:39:01;;;;;;;2.42;1.10;;;18.80;87.70;;;;;;6040008;23;20019;-92
2021/05/13 13:41:32;;;;;;;2.63;1.23;;;18.80;86.80;;;;;;6044447;23;20030;-92
2021/05/13 13:44:03;;;;;;;3.78;0.82;;;18.90;85.40;;;;;;6020189;23;20007;-92
2021/05/13 13:46:33;;;;;;;5.78;1.08;;;18.90;84.90;;;;;;6043229;23;20027;-93
2021/05/13 13:49:00;;;;;;;4.82;0.95;;;18.60;85.70;;;;;;6020377;23;20015;-95